Latest Coastal Weather Observations for Nullarbor

IDS60701

Issued at 11:21 pm CDT Sunday 14 February 2016 (issued every 10 minutes, with the page automatically refreshed every 10 minutes)

About coastal observations | Map of coastal stations | Coastal observations for SA | Marine services | Other Formats
Station Details ID: 018106 Name: NULLARBOR Lat: -31.45 Lon: 130.90 Height: 64.0 m
Data from the previous 72 hours. | See also: Recent months at Nullarbor
Date/Time
CDT
Temp

°C
Wind Pressure Rain
since 9am
mm
Weather Cloud Vis
km
Sea
Height
m
Swell
Dir
 
Speed
knots
Gust
knots
hPa Trend Height
m
Period
s
Dir
14/11:00pm 18.8 SSE 8 10 1020.6 - 0.0 - Partly cloudy 10 - - - -
14/10:30pm 18.8 S 8 10 1020.6 - 0.0 - Partly cloudy 10 - - - -
14/10:00pm 18.3 S 7 9 1020.4 - 0.0 - Partly cloudy 10 - - - -
14/09:30pm 18.5 S 8 10 1020.2 - 0.0 - - 10 - - - -
14/09:00pm 18.7 S 8 11 1019.8 - 0.0 - - 10 - - - -
14/08:30pm 19.2 S 11 14 1019.5 - 0.0 - - 10 - - - -
14/08:00pm 19.8 S 14 17 1019.2 - 0.0 - Partly cloudy 10 - - - -
14/07:30pm 20.4 S 16 19 1018.9 - 0.0 - - 10 - - - -
14/07:00pm 21.1 S 17 21 1018.9 - 0.0 - - 10 - - - -
14/06:30pm 21.5 S 17 22 1018.6 - 0.0 - - 10 - - - -
14/06:00pm 22.3 S 15 20 1018.7 - 0.0 - - 10 - - - -
14/05:30pm 22.9 S 15 20 1018.6 - 0.0 - - 10 - - - -
14/05:00pm 22.8 S 17 23 1018.7 - 0.0 - Partly cloudy 10 - - - -
14/04:30pm 22.7 S 15 21 1019.0 - 0.0 - Partly cloudy 10 - - - -
14/04:00pm 22.9 S 14 19 1019.1 - 0.0 - Partly cloudy 10 - - - -
14/03:30pm 21.8 SSE 14 20 1019.3 - 0.0 - Partly cloudy 10 - - - -
14/03:10pm 21.9 SSE 15 25 1019.6 - 0.0 - Cloudy 10 - - - -
14/03:00pm 21.3 SSE 13 18 1019.8 - 0.0 - Cloudy 10 - - - -
14/02:56pm 21.2 SSE 15 21 1019.8 - 0.0 - Partly cloudy 10 - - - -
14/02:44pm 21.2 SSE 17 23 1019.9 - 0.0 - Partly cloudy 7 - - - -
14/02:30pm 21.7 S 12 17 1019.8 - 0.0 - Partly cloudy 10 - - - -
14/02:00pm 22.1 SSE 14 18 1020.0 - 0.0 - Cloudy 10 - - - -
14/01:30pm 23.2 S 15 19 1020.1 - 0.0 - Partly cloudy 10 - - - -
14/01:00pm 22.3 S 12 18 1020.2 - 0.0 - Cloudy 10 - - - -
14/12:30pm 21.6 SSE 14 19 1020.4 - 0.0 - Partly cloudy 10 - - - -
14/12:00pm 22.1 SSE 14 20 1020.3 - 0.0 - Partly cloudy 10 - - - -
14/11:30am 21.3 SSE 13 18 1020.4 - 0.0 - Cloudy 10 - - - -
14/11:00am 22.6 SSE 15 20 1020.3 - 0.0 - Partly cloudy 10 - - - -
14/10:30am 21.3 S 17 21 1020.3 - 0.0 - Cloudy 10 - - - -
14/10:00am 20.9 SSE 16 20 1020.1 - 0.0 - Cloudy 10 - - - -
14/09:30am 21.1 SSE 15 20 1019.9 - 0.0 - Partly cloudy 10 - - - -
14/09:00am 20.8 SSE 13 18 1019.7 - 0.0 - Mostly cloudy 10 - - - -
14/08:30am 19.2 SSE 7 10 1019.6 - 0.0 - Partly cloudy 10 - - - -
14/08:00am 18.3 SSE 9 11 1019.2 - 0.0 - Partly cloudy 10 - - - -
14/07:30am 18.5 SSE 10 15 1018.9 - 0.0 - Cloudy 10 - - - -
14/07:00am 17.6 SSE 6 8 1018.5 - 0.0 - Partly cloudy 10 - - - -
14/06:30am 17.0 S 7 9 1018.3 - 0.0 - Partly cloudy 10 - - - -
14/06:00am 17.9 SSE 11 15 1018.0 - 0.0 - Partly cloudy 10 - - - -
14/05:30am 17.6 SSE 9 13 1017.7 - 0.0 - - 10 - - - -
14/05:00am 17.8 S 10 13 1017.6 - 0.0 - Partly cloudy 10 - - - -
14/04:30am 17.8 S 9 12 1017.5 - 0.0 - Partly cloudy 10 - - - -
14/04:00am 18.2 S 10 13 1017.4 - 0.0 - Partly cloudy 10 - - - -
14/03:30am 17.9 S 8 11 1017.6 - 0.0 - Partly cloudy 10 - - - -
14/03:00am 17.9 S 9 12 1017.8 - 0.0 - Mostly clear 10 - - - -
14/02:30am 18.6 SSE 10 12 1017.9 - 0.0 - Partly cloudy 10 - - - -
14/02:00am 18.4 S 11 15 1018.1 - 0.0 - Partly cloudy 10 - - - -
14/01:30am 18.5 S 9 12 1018.3 - 0.0 - Partly cloudy 10 - - - -
14/01:00am 18.7 S 10 14 1018.3 - 0.0 - Partly cloudy 10 - - - -
14/12:30am 19.6 S 14 18 1018.3 - 0.0 - Cloudy 10 - - - -
14/12:00am 19.7 S 15 21 1018.4 - 0.0 - Cloudy 10 - - - -
 
Date/Time
CDT
Temp

°C
Wind Pressure Rain
since 9am
mm
Weather Cloud Vis
km
Sea
Height
m
Swell
Dir
 
Speed
knots
Gust
knots
hPa Trend Height
m
Period
s
Dir
13/11:30pm 19.8 S 15 20 1018.4 - 0.0 - Partly cloudy 10 - - - -
13/11:00pm 19.9 SSE 11 14 1018.5 - 0.0 - Cloudy 10 - - - -
13/10:30pm 19.6 SSE 13 18 1018.4 - 0.0 - Partly cloudy 10 - - - -
13/10:00pm 19.6 SSE 10 13 1018.2 - 0.0 - Partly cloudy 10 - - - -
13/09:30pm 19.6 SSE 11 15 1017.9 - 0.0 - Partly cloudy 10 - - - -
13/09:00pm 19.8 SSE 13 17 1017.5 - 0.0 - - 10 - - - -
13/08:30pm 20.1 SSE 15 21 1017.2 - 0.0 - - 10 - - - -
13/08:00pm 20.8 SSE 16 21 1016.7 - 0.0 - Partly cloudy 10 - - - -
13/07:30pm 21.1 SSE 17 24 1016.2 - 0.0 - Partly cloudy 10 - - - -
13/07:00pm 21.6 SSE 20 27 1016.0 - 0.0 - Partly cloudy 10 - - - -
13/06:30pm 21.9 S 21 27 1015.9 - 0.0 - Partly cloudy 10 - - - -
13/06:00pm 22.8 S 21 26 1015.7 - 0.0 - Partly cloudy 10 - - - -
13/05:30pm 23.2 S 20 25 1015.6 - 0.0 - Partly cloudy 10 - - - -
13/05:00pm 23.4 S 19 25 1015.5 - 0.0 - Partly cloudy 10 - - - -
13/04:30pm 23.7 S 19 26 1015.4 - 0.0 - Partly cloudy 10 - - - -
13/04:00pm 23.5 S 20 26 1015.6 - 0.0 - Cloudy 10 - - - -
13/03:30pm 23.7 S 21 28 1015.6 - 0.0 - Cloudy 10 - - - -
13/03:00pm 24.8 S 20 27 1015.7 - 0.0 - Partly cloudy 10 - - - -
13/02:30pm 24.6 S 19 26 1015.9 - 0.0 - Partly cloudy 10 - - - -
13/02:00pm 24.3 S 19 24 1016.0 - 0.0 - Partly cloudy 10 - - - -
13/01:30pm 25.0 S 17 22 1016.1 - 0.0 - - 10 - - - -
13/01:00pm 24.5 S 16 20 1016.3 - 0.0 - - 10 - - - -
13/12:30pm 23.7 S 15 19 1016.5 - 0.0 - - 10 - - - -
13/12:00pm 23.7 S 13 18 1016.5 - 0.0 - Mostly clear 10 - - - -
13/11:30am 23.4 S 15 19 1016.5 - 0.0 - Partly cloudy 10 - - - -
13/11:00am 23.2 S 13 18 1016.3 - 0.0 - Partly cloudy 10 - - - -
13/10:58am 23.5 S 13 18 1016.3 - 0.0 - Partly cloudy 10 - - - -
13/10:30am 23.1 S 12 17 1016.4 - 0.0 - Partly cloudy 10 - - - -
13/10:19am 22.4 S 13 16 1016.4 - 0.0 - Partly cloudy 10 - - - -
13/10:00am 21.9 S 13 17 1016.3 - 0.0 - Partly cloudy 10 - - - -
13/09:57am 21.8 S 14 17 1016.3 - 0.0 - Partly cloudy 10 - - - -
13/09:30am 21.0 S 12 15 1016.0 - 0.0 - Cloudy 10 - - - -
13/09:00am 20.1 S 12 16 1015.8 - 0.0 - Mostly cloudy 10 - - - -
13/08:30am 19.9 SSW 9 12 1015.2 - 0.0 - Partly cloudy 10 - - - -
13/08:03am 18.9 SSW 9 12 1014.8 - 0.0 - Partly cloudy 10 - - - -
13/08:00am 18.8 SSW 8 12 1014.8 - 0.0 - Partly cloudy 10 - - - -
13/07:51am 18.6 SSW 8 11 1014.7 - 0.0 - Partly cloudy 10 - - - -
13/07:30am 18.9 SSW 10 12 1014.5 - 0.0 - Partly cloudy 10 - - - -
13/07:00am 18.1 SW 9 11 1013.8 - 0.0 - Partly cloudy 10 - - - -
13/06:58am 18.0 SW 9 11 1013.8 - 0.0 - Partly cloudy 10 - - - -
13/06:30am 17.2 SW 8 9 1013.4 - 0.0 - - 10 - - - -
13/06:00am 16.6 SW 8 9 1013.0 - 0.0 - Partly cloudy 10 - - - -
13/05:30am 16.7 SW 8 9 1012.8 - 0.0 - - 10 - - - -
13/05:00am 16.7 SW 7 8 1012.6 - 0.0 - - 10 - - - -
13/04:30am 16.6 SW 7 8 1012.5 - 0.0 - - 10 - - - -
13/04:00am 17.0 SW 8 10 1012.5 - 0.0 - - 10 - - - -
13/03:30am 18.1 WSW 2 3 1012.2 - 0.0 - - 10 - - - -
13/03:00am 19.1 NNE 4 5 1012.4 - 0.0 - Partly cloudy 10 - - - -
13/02:30am 18.1 NNE 7 9 1012.3 - 0.0 - - 10 - - - -
13/02:00am 18.5 ENE 7 7 1012.7 - 0.0 - - 10 - - - -
13/01:30am 19.4 ENE 9 9 1012.8 - 0.0 - - 10 - - - -
13/01:00am 19.2 E 7 8 1013.0 - 0.0 - - 10 - - - -
13/12:30am 19.1 ESE 7 8 1013.2 - 0.0 - - 10 - - - -
13/12:00am 19.5 E 6 7 1013.3 - 0.0 - - 10 - - - -
 
Date/Time
CDT
Temp

°C
Wind Pressure Rain
since 9am
mm
Weather Cloud Vis
km
Sea
Height
m
Swell
Dir
 
Speed
knots
Gust
knots
hPa Trend Height
m
Period
s
Dir
12/11:30pm 20.0 E 7 9 1013.4 - 0.0 - - 10 - - - -
12/11:00pm 20.3 ESE 8 9 1013.4 - 0.0 - - 10 - - - -
12/10:30pm 20.7 ESE 7 8 1013.3 - 0.0 - - 10 - - - -
12/10:00pm 21.0 ESE 7 8 1013.3 - 0.0 - - 10 - - - -
12/09:30pm 21.6 SE 7 8 1013.3 - 0.0 - - 10 - - - -
12/09:00pm 22.9 SE 7 8 1013.0 - 0.0 - - 10 - - - -
12/08:30pm 24.8 ESE 8 11 1012.8 - 0.0 - - 10 - - - -
12/08:00pm 26.5 ESE 9 12 1012.6 - 0.0 - - 10 - - - -
12/07:30pm 27.6 SE 11 14 1012.7 - 0.0 - - 10 - - - -
12/07:00pm 28.6 SE 12 15 1012.6 - 0.0 - - 10 - - - -
12/06:30pm 28.2 SSE 14 16 1012.5 - 0.0 - - 10 - - - -
12/06:00pm 28.7 SSE 15 19 1012.6 - 0.0 - - 10 - - - -
12/05:30pm 28.7 SSE 16 19 1012.7 - 0.0 - - 10 - - - -
12/05:00pm 29.1 SSE 15 18 1012.7 - 0.0 - - 10 - - - -
12/04:30pm 29.6 S 15 18 1012.9 - 0.0 - - 10 - - - -
12/04:00pm 31.0 SSE 13 16 1013.0 - 0.0 - - 10 - - - -
12/03:30pm 30.7 SSE 12 16 1013.2 - 0.0 - - 10 - - - -
12/03:00pm 31.7 SSE 12 17 1013.5 - 0.0 - - 10 - - - -
12/02:30pm 33.5 W 4 8 1013.7 - 0.0 - - 10 - - - -
12/02:00pm 32.0 N 6 10 1013.5 - 0.0 - - 10 - - - -
12/01:30pm 30.7 N 5 10 1014.0 - 0.0 - - 10 - - - -
12/01:00pm 29.5 NE 6 9 1014.7 - 0.0 - - 10 - - - -
12/12:30pm 28.0 NNE 8 13 1014.8 - 0.0 - - 10 - - - -
12/12:00pm 25.9 NNE 9 12 1015.4 - 0.0 - - 10 - - - -
12/11:30am 23.4 NNE 7 10 1015.8 - 0.0 - - 10 - - - -
12/11:00am 21.0 NNE 6 9 1016.2 - 0.0 - - 10 - - - -
12/10:30am 19.4 NNE 7 10 1016.4 - 0.0 - - 10 - - - -
12/10:19am 18.6 NNE 6 9 1016.5 - 0.0 - Partly cloudy 10 - - - -
12/10:00am 17.0 NE 7 9 1016.6 - 0.0 - Partly cloudy 10 - - - -
12/09:59am 17.0 NE 7 9 1016.7 - 0.0 - Cloudy 10 - - - -
12/09:30am 15.6 NNE 5 7 1016.8 - 0.0 - Cloudy 1 - - - -
12/09:00am 15.4 NE 5 6 1017.0 - 0.0 - Cloudy 0.5 - - - -
12/08:30am 15.3 NE 5 7 1016.8 - 0.0 - Cloudy 0.6 - - - -
12/08:00am 14.9 CALM 0 3 1016.6 - 0.0 - Cloudy 0.3 - - - -
12/07:30am 15.2 ENE 5 6 1016.0 - 0.0 - Cloudy 0.4 - - - -
12/07:00am 15.5 ENE 7 8 1015.7 - 0.0 - Cloudy 2 - - - -
12/06:52am 15.5 ENE 7 8 1015.6 - 0.0 - Cloudy 7 - - - -
12/06:30am 15.9 ENE 6 8 1015.5 - 0.0 - Cloudy 10 - - - -
12/06:00am 16.2 E 8 11 1015.3 - 0.0 - Cloudy 10 - - - -
12/05:30am 16.4 E 7 9 1015.3 - 0.0 - Cloudy 10 - - - -
12/05:00am 16.3 E 6 7 1015.2 - 0.0 - Cloudy 10 - - - -
12/04:30am 16.1 E 4 5 1015.6 - 0.0 - Cloudy 10 - - - -
12/04:00am 15.2 NE 4 5 1015.8 - 0.0 - Partly cloudy 10 - - - -
12/03:53am 14.9 ENE 4 5 1015.8 - 0.0 - Partly cloudy 10 - - - -
12/03:51am 14.9 ENE 4 5 1015.8 - 0.0 - Partly cloudy 10 - - - -
12/03:32am 15.1 SE 5 5 1016.0 - 0.0 - Partly cloudy 10 - - - -
12/03:30am 15.1 SE 5 6 1016.0 - 0.0 - Partly cloudy 10 - - - -
12/03:00am 15.6 SE 5 6 1016.3 - 0.0 - Mostly clear 10 - - - -
12/02:30am 16.4 ESE 6 8 1016.6 - 0.0 - Partly cloudy 10 - - - -
12/02:22am 16.6 ESE 7 10 1016.7 - 0.0 - Partly cloudy 10 - - - -
12/02:00am 17.3 ESE 8 11 1017.1 - 0.0 - Cloudy 10 - - - -
12/01:30am 17.6 ESE 10 13 1017.5 - 0.0 - Cloudy 10 - - - -
12/01:00am 17.4 SE 9 13 1017.7 - 0.0 - Partly cloudy 10 - - - -
12/12:37am 16.8 SE 8 11 1017.9 - 0.0 - Partly cloudy 10 - - - -
12/12:30am 16.6 SE 8 10 1017.9 - 0.0 - Partly cloudy 10 - - - -
12/12:00am 16.7 SE 7 9 1018.1 - 0.0 - - 10 - - - -
 
Date/Time
CDT
Temp

°C
Wind Pressure Rain
since 9am
mm
Weather Cloud Vis
km
Sea
Height
m
Swell
Dir
 
Speed
knots
Gust
knots
hPa Trend Height
m
Period
s
Dir
11/11:30pm 17.0 SE 9 10 1018.3 - 0.0 - - 10 - - - -

Other Formats:

Comma delimited format used in spreadsheet applications
http://www.bom.gov.au/fwo/IDS60701/IDS60701.94651.axf

JavaScript Object Notation format (JSON) in row-major order
http://www.bom.gov.au/fwo/IDS60701/IDS60701.94651.json